Time;durP1;ratioP1;P1;durP2;ratioP2;P2;SDS_P1;SDS_P2;PMS_P1;PMS_P2;Temp;Humidity;BMP_temperature;BMP_pressure;BME280_temperature;BME280_humidity;BME280_pressure;Samples;Min_cycle;Max_cycle;Signal;HPM_P1;HPM_P2
2021/11/02 00:02:07;;;;;;;;;78.00;64.75;12.40;56.20;;;;;;5034197;28;8801;-73
2021/11/02 00:04:33;;;;;;;;;77.00;62.00;11.80;58.10;;;;;;5034013;28;8778;-70
2021/11/02 00:06:59;;;;;;;;;76.00;64.25;11.60;59.60;;;;;;5034130;28;8781;-70
2021/11/02 00:09:27;;;;;;;;;69.00;56.25;11.40;60.30;;;;;;5034024;28;8774;-70
2021/11/02 00:11:54;;;;;;;;;69.00;57.25;11.30;60.30;;;;;;5033958;28;8793;-70
2021/11/02 00:14:21;;;;;;;;;69.00;56.25;11.40;60.50;;;;;;5034139;28;8809;-72
2021/11/02 00:16:53;;;;;;;;;69.00;57.00;11.20;60.70;;;;;;5034181;28;8912;-70
2021/11/02 00:19:19;;;;;;;;;74.00;60.00;11.20;61.10;;;;;;5034077;28;8742;-70
2021/11/02 00:21:47;;;;;;;;;73.00;59.50;11.30;61.00;;;;;;5034829;28;8817;-71
2021/11/02 00:24:15;;;;;;;;;72.00;58.50;11.30;60.80;;;;;;5037677;28;8782;-70
2021/11/02 00:26:41;;;;;;;;;70.25;56.75;11.90;59.20;;;;;;5036621;28;8818;-71
2021/11/02 00:29:08;;;;;;;;;72.00;60.00;11.70;58.70;;;;;;5037828;28;8789;-71
2021/11/02 00:31:35;;;;;;;;;75.00;61.50;11.70;59.30;;;;;;5037614;28;8777;-70
2021/11/02 00:34:02;;;;;;;;;71.00;58.00;11.70;59.20;;;;;;5037617;28;8806;-71
2021/11/02 00:36:28;;;;;;;;;67.75;56.00;11.90;58.40;;;;;;5036375;28;8785;-70
2021/11/02 00:38:53;;;;;;;;;72.00;58.00;12.10;57.30;;;;;;5037459;28;8769;-70
2021/11/02 00:41:19;;;;;;;;;70.25;58.00;11.80;57.70;;;;;;5037376;28;8883;-70
2021/11/02 00:43:47;;;;;;;;;68.25;56.00;11.60;58.70;;;;;;5037266;28;8781;-71
2021/11/02 00:46:14;;;;;;;;;64.25;54.00;11.80;58.20;;;;;;5037224;28;8782;-71
2021/11/02 00:48:39;;;;;;;;;68.75;55.50;12.10;57.30;;;;;;5037144;28;8770;-70
2021/11/02 00:51:06;;;;;;;;;69.00;57.00;12.40;56.10;;;;;;5037274;28;8794;-68
2021/11/02 00:53:32;;;;;;;;;65.25;54.25;12.50;55.40;;;;;;5037040;28;8817;-69
2021/11/02 00:55:57;;;;;;;;;64.50;54.00;12.40;55.70;;;;;;5037122;28;8863;-70
2021/11/02 00:58:25;;;;;;;;;73.25;60.00;12.50;55.30;;;;;;5036994;28;8778;-69
2021/11/02 01:00:52;;;;;;;;;77.50;65.25;12.30;55.40;;;;;;5037098;28;8766;-71
2021/11/02 01:03:18;;;;;;;;;75.75;66.00;11.80;56.80;;;;;;5036937;28;8778;-72
2021/11/02 01:05:44;;;;;;;;;73.50;61.00;11.80;57.60;;;;;;5037161;28;8770;-72
2021/11/02 01:08:10;;;;;;;;;75.50;62.25;12.00;57.10;;;;;;5036816;28;9298;-72
2021/11/02 01:10:36;;;;;;;;;77.25;65.00;12.30;56.00;;;;;;5036767;28;8792;-71
2021/11/02 01:13:02;;;;;;;;;70.25;58.50;12.30;55.70;;;;;;5036680;28;8821;-70
2021/11/02 01:15:30;;;;;;;;;70.25;59.00;12.30;55.70;;;;;;5036861;28;8809;-72
2021/11/02 01:17:56;;;;;;;;;69.00;57.50;12.50;55.30;;;;;;5036945;28;9419;-70
2021/11/02 01:20:23;;;;;;;;;68.50;55.50;12.50;55.90;;;;;;5036626;28;8797;-72
2021/11/02 01:22:50;;;;;;;;;71.75;58.00;12.60;54.50;;;;;;5035362;28;8832;-72
2021/11/02 01:25:16;;;;;;;;;62.75;50.75;12.60;54.20;;;;;;5036436;28;8856;-70
2021/11/02 01:27:43;;;;;;;;;68.00;57.00;12.60;54.70;;;;;;5036546;28;8757;-70
2021/11/02 01:30:11;;;;;;;;;61.75;52.00;12.40;54.90;;;;;;5036679;28;9470;-71
2021/11/02 01:32:38;;;;;;;;;63.50;53.25;12.50;54.90;;;;;;5035844;28;8781;-71
2021/11/02 01:35:05;;;;;;;;;60.50;51.50;12.60;54.70;;;;;;5036434;28;8847;-70
2021/11/02 01:37:31;;;;;;;;;68.00;56.00;12.60;54.50;;;;;;5036301;28;8789;-70
2021/11/02 01:39:59;;;;;;;;;65.50;53.50;12.60;54.20;;;;;;5036256;28;8884;-69
2021/11/02 01:42:25;;;;;;;;;69.25;56.75;12.50;54.60;;;;;;5036151;28;8870;-69
2021/11/02 01:44:53;;;;;;;;;68.25;55.50;12.10;56.00;;;;;;5036250;28;8846;-71
2021/11/02 01:47:21;;;;;;;;;65.50;53.25;12.10;56.10;;;;;;5036329;28;8778;-72
2021/11/02 01:49:48;;;;;;;;;69.00;57.50;11.90;56.80;;;;;;5036395;28;9497;-71
2021/11/02 01:52:14;;;;;;;;;71.50;57.00;12.20;56.50;;;;;;5036227;28;8800;-71
2021/11/02 01:54:40;;;;;;;;;70.00;56.25;12.60;55.20;;;;;;5035926;28;8794;-71
2021/11/02 01:57:05;;;;;;;;;65.75;54.25;12.70;54.60;;;;;;5036198;28;8778;-70
2021/11/02 01:59:34;;;;;;;;;67.25;57.00;12.80;54.20;;;;;;5036199;28;8773;-72
2021/11/02 02:02:11;;;;;;;;;67.00;53.75;12.80;54.40;;;;;;5034151;28;8781;-70
2021/11/02 02:04:49;;;;;;;;;66.00;55.75;12.70;54.60;;;;;;5036089;28;8823;-70
2021/11/02 02:07:41;;;;;;;;;70.00;57.00;12.80;54.30;;;;;;5035786;28;8800;-69
2021/11/02 02:10:20;;;;;;;;;64.25;53.00;12.90;53.70;;;;;;5036004;28;8778;-70
2021/11/02 02:12:57;;;;;;;;;65.00;53.75;12.10;54.90;;;;;;5035743;28;8773;-73
2021/11/02 02:15:42;;;;;;;;;57.75;49.25;11.70;57.50;;;;;;5034461;28;8847;-71
2021/11/02 02:18:25;;;;;;;;;61.00;51.00;11.30;57.40;;;;;;5035622;28;8774;-71
2021/11/02 02:21:10;;;;;;;;;56.00;48.00;11.40;58.80;;;;;;5035561;28;8778;-72
2021/11/02 02:24:15;;;;;;;;;58.00;48.50;11.60;57.20;;;;;;5035402;28;8820;-72
2021/11/02 02:26:50;;;;;;;;;61.00;49.75;11.60;57.00;;;;;;5020420;28;8773;-72
2021/11/02 02:29:19;;;;;;;;;53.75;46.00;11.60;57.30;;;;;;5035720;28;8784;-70
2021/11/02 02:31:47;;;;;;;;;55.00;47.00;11.60;56.90;;;;;;5035573;28;8915;-72
2021/11/02 02:34:15;;;;;;;;;56.00;48.00;11.80;56.70;;;;;;5035187;28;8801;-72
2021/11/02 02:36:44;;;;;;;;;56.50;48.25;12.10;56.20;;;;;;5035443;28;8761;-71
2021/11/02 02:39:12;;;;;;;;;59.25;50.50;12.10;55.40;;;;;;5035366;28;8773;-70
2021/11/02 02:41:40;;;;;;;;;56.00;48.00;12.00;55.60;;;;;;5035170;28;8793;-72
2021/11/02 02:44:08;;;;;;;;;52.50;45.00;12.00;56.10;;;;;;5034320;28;8770;-70
2021/11/02 02:46:36;;;;;;;;;56.75;48.75;11.90;56.00;;;;;;5035018;28;8777;-70
2021/11/02 02:49:02;;;;;;;;;54.00;45.25;11.80;56.10;;;;;;5035242;28;8777;-70
2021/11/02 02:51:29;;;;;;;;;54.50;46.00;11.70;56.30;;;;;;5035088;28;8797;-69
2021/11/02 02:53:56;;;;;;;;;53.50;45.50;11.70;56.30;;;;;;5034841;28;8878;-71
2021/11/02 02:56:24;;;;;;;;;50.50;43.75;11.70;56.00;;;;;;5034951;28;8793;-69
2021/11/02 02:58:58;;;;;;;;;51.75;45.25;11.80;56.00;;;;;;5034840;28;8789;-70
2021/11/02 03:01:25;;;;;;;;;46.50;41.00;11.70;56.00;;;;;;5034849;28;8785;-71
2021/11/02 03:04:05;;;;;;;;;51.25;44.50;11.80;55.90;;;;;;5034795;28;8777;-71
2021/11/02 03:06:35;;;;;;;;;46.25;42.25;11.90;55.90;;;;;;5034751;28;8866;-70
2021/11/02 03:09:03;;;;;;;;;50.50;43.00;12.00;55.30;;;;;;5034360;28;8793;-70
2021/11/02 03:11:30;;;;;;;;;50.50;43.50;12.10;54.90;;;;;;5034626;28;8780;-72
2021/11/02 03:13:58;;;;;;;;;53.25;45.25;12.10;55.00;;;;;;5034554;28;8912;-70
2021/11/02 03:17:11;;;;;;;;;51.25;44.00;12.20;54.90;;;;;;5034779;28;8774;-70
2021/11/02 03:54:24;;;;;;;;;53.50;45.50;12.70;56.60;;;;;;5034283;28;8832;-70
2021/11/02 03:54:51;;;;;;;;;51.25;42.75;12.80;57.20;;;;;;5034074;28;8872;-71
2021/11/02 04:30:43;;;;;;;;;61.25;50.75;11.70;67.00;;;;;;5037723;28;8750;-69
2021/11/02 06:05:08;;;;;;;;;71.25;57.75;11.60;75.30;;;;;;5013301;28;8772;-70
2021/11/02 06:10:42;;;;;;;;;60.50;51.25;11.50;75.20;;;;;;5055990;28;8744;-72
2021/11/02 06:29:52;;;;;;;;;66.50;55.25;11.10;78.00;;;;;;5055698;28;9400;-73
2021/11/02 06:32:27;;;;;;;;;65.25;54.25;11.20;78.10;;;;;;5055423;28;8782;-70
2021/11/02 06:40:16;;;;;;;;;64.75;54.25;11.10;78.00;;;;;;5055212;28;9409;-70
2021/11/02 07:00:30;;;;;;;;;67.00;55.00;11.90;76.10;;;;;;5054781;28;8736;-70
2021/11/02 08:45:43;;;;;;;;;57.00;47.25;13.00;77.30;;;;;;5037410;28;8745;-68
2021/11/02 08:48:04;;;;;;;;;68.50;56.25;13.10;77.60;;;;;;5038201;28;8979;-69
2021/11/02 08:50:41;;;;;;;;;55.75;47.75;13.20;78.40;;;;;;5037147;28;8884;-68
2021/11/02 08:53:09;;;;;;;;;56.75;48.75;13.30;77.60;;;;;;5037500;28;8820;-68
2021/11/02 08:55:36;;;;;;;;;59.50;48.00;13.50;76.70;;;;;;5037057;28;8758;-68
2021/11/02 08:58:03;;;;;;;;;59.75;50.00;13.70;76.30;;;;;;5037259;28;8939;-68
2021/11/02 09:00:30;;;;;;;;;58.50;49.75;13.90;76.60;;;;;;5036176;28;8766;-68
2021/11/02 09:03:16;;;;;;;;;58.75;50.00;13.90;75.70;;;;;;5037261;28;9447;-69
2021/11/02 09:05:42;;;;;;;;;57.25;48.25;14.10;76.30;;;;;;5036863;28;8793;-68
2021/11/02 09:08:10;;;;;;;;;57.50;48.50;14.30;75.30;;;;;;5037004;28;8766;-69
2021/11/02 09:10:40;;;;;;;;;50.25;42.00;14.40;74.20;;;;;;5037203;28;9459;-69
2021/11/02 09:13:08;;;;;;;;;56.50;46.75;14.50;73.90;;;;;;5036942;28;8786;-68
2021/11/02 09:15:36;;;;;;;;;48.50;42.00;14.30;74.30;;;;;;5036788;28;8907;-69
2021/11/02 09:18:08;;;;;;;;;54.25;46.00;14.40;73.40;;;;;;5036783;28;8867;-68
2021/11/02 09:20:35;;;;;;;;;54.50;46.00;14.40;74.20;;;;;;5036656;28;8782;-68
2021/11/02 09:23:01;;;;;;;;;54.75;45.75;14.50;74.10;;;;;;5036414;28;8955;-69
2021/11/02 09:25:27;;;;;;;;;53.00;45.00;14.40;73.60;;;;;;5036773;28;9459;-69
2021/11/02 09:27:53;;;;;;;;;57.50;48.25;14.70;73.70;;;;;;5036534;28;8781;-67
2021/11/02 09:30:21;;;;;;;;;50.25;42.75;14.90;72.70;;;;;;5036310;28;8777;-69
2021/11/02 09:32:49;;;;;;;;;54.00;45.50;15.10;72.00;;;;;;5036587;28;9754;-69
2021/11/02 09:35:17;;;;;;;;;55.00;46.50;15.40;71.40;;;;;;5036334;28;8820;-68
2021/11/02 09:38:00;;;;;;;;;52.00;44.75;15.20;70.80;;;;;;5036382;28;8839;-68
2021/11/02 09:40:29;;;;;;;;;57.50;47.25;14.80;72.20;;;;;;5036355;28;8792;-69
2021/11/02 09:43:27;;;;;;;;;48.50;41.50;15.10;72.40;;;;;;5036173;28;8835;-69
2021/11/02 09:46:27;;;;;;;;;53.00;45.75;15.30;71.60;;;;;;5036197;28;8805;-68
2021/11/02 09:49:28;;;;;;;;;47.50;42.50;15.80;70.50;;;;;;5036242;28;8765;-69
2021/11/02 09:52:05;;;;;;;;;50.50;43.25;15.80;69.30;;;;;;5036204;28;8793;-68
2021/11/02 09:54:42;;;;;;;;;51.50;44.25;16.00;69.00;;;;;;5035660;28;8883;-68
2021/11/02 09:57:33;;;;;;;;;53.50;45.50;16.70;69.30;;;;;;5035853;28;8797;-69
2021/11/02 10:00:08;;;;;;;;;51.33;43.67;17.20;66.00;;;;;;5035921;28;8792;-69
2021/11/02 10:02:49;;;;;;;;;53.33;44.33;17.20;65.70;;;;;;5035788;28;8781;-68
2021/11/02 10:05:38;;;;;;;;;43.67;38.33;18.70;63.50;;;;;;5035867;28;8793;-69
2021/11/02 10:08:22;;;;;;;;;46.67;39.00;22.80;53.80;;;;;;5035765;28;8762;-70
2021/11/02 10:11:01;;;;;;;;;37.00;33.33;26.00;46.30;;;;;;5036183;28;9446;-70
2021/11/02 10:13:31;;;;;;;;;39.33;34.67;27.00;42.40;;;;;;5051050;28;9463;-69
2021/11/02 10:16:04;;;;;;;;;40.33;35.67;30.00;37.80;;;;;;5035614;28;8827;-68
2021/11/02 10:18:42;;;;;;;;;44.00;38.00;30.30;34.80;;;;;;5035491;28;8811;-68
2021/11/02 10:21:27;;;;;;;;;42.67;37.33;25.40;40.50;;;;;;5035337;28;8805;-69
2021/11/02 10:24:30;;;;;;;;;39.00;34.00;23.20;47.80;;;;;;5035476;28;8810;-69
2021/11/02 10:27:05;;;;;;;;;35.67;32.67;25.80;45.40;;;;;;5035316;28;8757;-70
2021/11/02 10:29:52;;;;;;;;;31.00;30.00;28.50;39.50;;;;;;5034961;28;11524;-69
2021/11/02 10:32:24;;;;;;;;;46.00;40.00;24.90;41.00;;;;;;5035479;28;11552;-68
2021/11/02 10:34:58;;;;;;;;;40.00;35.00;22.20;47.70;;;;;;5034111;28;9480;-68
2021/11/02 10:37:39;;;;;;;;;41.00;36.00;25.00;47.30;;;;;;5034181;28;9435;-69
2021/11/02 10:40:12;;;;;;;;;39.33;34.33;28.80;40.40;;;;;;5035145;28;8917;-69
2021/11/02 10:43:23;;;;;;;;;36.67;33.00;31.10;32.80;;;;;;5035358;28;8801;-68
2021/11/02 10:46:02;;;;;;;;;42.00;36.67;31.30;33.60;;;;;;5034902;28;11620;-69
2021/11/02 10:48:37;;;;;;;;;41.33;36.00;27.90;34.40;;;;;;5035010;28;8793;-69
2021/11/02 10:51:28;;;;;;;;;40.67;35.00;27.30;39.20;;;;;;5035075;28;8753;-69
2021/11/02 10:54:35;;;;;;;;;42.33;37.33;29.00;34.30;;;;;;5034350;28;8801;-69
2021/11/02 10:57:15;;;;;;;;;43.00;37.00;27.40;35.50;;;;;;5006411;28;9395;-69
2021/11/02 10:59:49;;;;;;;;;37.00;33.67;28.00;37.50;;;;;;5034869;28;8868;-68
2021/11/02 11:02:27;;;;;;;;;35.33;32.00;28.90;35.30;;;;;;5035009;28;9544;-69
2021/11/02 11:04:57;;;;;;;;;33.67;31.67;33.30;30.40;;;;;;5034228;28;8896;-69
2021/11/02 11:07:25;;;;;;;;;43.00;37.67;35.20;28.50;;;;;;5034485;28;8797;-69
2021/11/02 11:09:54;;;;;;;;;41.67;35.33;36.30;27.00;;;;;;5034469;28;8784;-69
2021/11/02 11:12:22;;;;;;;;;40.00;35.00;37.40;25.70;;;;;;5034466;28;8796;-69
2021/11/02 11:14:53;;;;;;;;;38.33;33.33;38.80;24.90;;;;;;5050002;28;8829;-69
2021/11/02 11:17:26;;;;;;;;;39.67;34.33;40.60;23.20;;;;;;5034717;28;8801;-69
2021/11/02 11:20:13;;;;;;;;;34.00;30.00;41.60;22.30;;;;;;5034585;28;8797;-70
2021/11/02 11:22:44;;;;;;;;;38.67;34.00;41.00;22.60;;;;;;5034198;28;8825;-69
2021/11/02 11:25:15;;;;;;;;;31.33;30.33;39.40;23.70;;;;;;5034285;28;8968;-69
2021/11/02 11:27:56;;;;;;;;;39.33;34.33;38.20;24.70;;;;;;5034436;28;8831;-70
2021/11/02 11:30:34;;;;;;;;;36.33;33.67;38.40;24.50;;;;;;5034414;28;8824;-69
2021/11/02 11:33:05;;;;;;;;;39.00;34.33;37.40;24.90;;;;;;5034282;28;8785;-69
2021/11/02 11:35:36;;;;;;;;;36.33;32.00;39.70;23.30;;;;;;5034375;28;8777;-69
2021/11/02 11:38:08;;;;;;;;;34.00;30.67;40.70;22.40;;;;;;5034494;28;9483;-69
2021/11/02 11:40:36;;;;;;;;;32.67;30.00;42.10;21.40;;;;;;5034344;28;8870;-69
2021/11/02 11:43:05;;;;;;;;;32.33;30.33;43.10;21.00;;;;;;5034279;28;8793;-69
2021/11/02 11:45:34;;;;;;;;;34.00;31.00;43.30;20.40;;;;;;5049517;28;9552;-70
2021/11/02 11:48:08;;;;;;;;;29.67;28.00;41.70;21.30;;;;;;5034398;28;8769;-69
2021/11/02 11:50:36;;;;;;;;;31.33;29.67;42.30;21.20;;;;;;5034180;28;8770;-69
2021/11/02 11:53:03;;;;;;;;;37.67;33.67;43.50;20.20;;;;;;5033927;28;8824;-68
2021/11/02 11:55:41;;;;;;;;;33.00;30.00;44.20;19.50;;;;;;5034426;28;8816;-70
2021/11/02 11:58:14;;;;;;;;;27.33;27.33;44.80;19.00;;;;;;5034403;28;8758;-70
2021/11/02 12:00:46;;;;;;;;;21.50;21.50;45.20;18.80;;;;;;5034352;28;8899;-69
2021/11/02 12:03:57;;;;;;;;;23.50;23.50;38.80;20.10;;;;;;5034141;28;12263;-69
2021/11/02 12:06:33;;;;;;;;;23.00;23.00;38.70;22.70;;;;;;5049515;28;12552;-69
2021/11/02 12:09:03;;;;;;;;;22.00;22.00;40.50;21.90;;;;;;5033870;28;11527;-70
2021/11/02 12:11:32;;;;;;;;;21.50;21.50;42.40;20.50;;;;;;5033870;28;11534;-70
2021/11/02 12:14:08;;;;;;;;;16.00;16.00;43.60;19.10;;;;;;5033901;28;12233;-70
2021/11/02 12:16:39;;;;;;;;;19.25;19.25;42.60;19.40;;;;;;5034605;28;11634;-70
2021/11/02 12:19:11;;;;;;;;;19.25;19.25;39.20;21.20;;;;;;5037862;28;12151;-69
2021/11/02 12:21:39;;;;;;;;;21.25;21.25;39.70;21.40;;;;;;5037377;28;11570;-70
2021/11/02 12:24:07;;;;;;;;;22.25;22.25;39.80;21.60;;;;;;5037309;28;11544;-70
2021/11/02 12:26:50;;;;;;;;;19.25;19.25;40.80;21.10;;;;;;5037799;28;11523;-69
2021/11/02 12:29:24;;;;;;;;;20.75;20.75;40.20;20.80;;;;;;5037434;28;11612;-70
2021/11/02 12:32:02;;;;;;;;;17.00;17.00;41.30;19.90;;;;;;5037435;28;11524;-70
2021/11/02 12:34:40;;;;;;;;;20.00;20.00;40.90;20.10;;;;;;5037149;28;11617;-69
2021/11/02 12:37:10;;;;;;;;;23.00;23.00;37.00;22.70;;;;;;5037602;28;11513;-69
2021/11/02 12:39:37;;;;;;;;;24.75;24.75;31.40;26.20;;;;;;5052783;28;11627;-69
2021/11/02 12:42:04;;;;;;;;;23.00;22.50;28.60;29.30;;;;;;5037455;28;12184;-69
2021/11/02 12:44:32;;;;;;;;;22.25;22.25;28.40;30.70;;;;;;5037306;28;11643;-69
2021/11/02 12:47:01;;;;;;;;;22.50;22.50;31.10;29.00;;;;;;5037428;28;11546;-69
2021/11/02 12:49:52;;;;;;;;;27.50;27.25;31.30;26.30;;;;;;5037006;28;11638;-79
2021/11/02 12:52:19;;;;;;;;;24.00;24.00;28.30;29.90;;;;;;5042161;28;11551;-71
2021/11/02 12:55:23;;;;;;;;;27.00;27.00;28.60;30.40;;;;;;5036599;28;11649;-71
2021/11/02 12:58:00;;;;;;;;;23.33;23.33;26.60;32.70;;;;;;5040691;28;12320;-66
2021/11/02 13:00:27;;;;;;;;;29.67;29.67;25.10;36.80;;;;;;5047315;28;11523;-68
2021/11/02 13:02:58;;;;;;;;;28.00;28.00;24.70;37.40;;;;;;5049688;28;11529;-68
2021/11/02 13:05:26;;;;;;;;;28.00;28.00;24.50;37.40;;;;;;5038675;28;11504;-66
2021/11/02 13:08:07;;;;;;;;;39.33;35.33;23.80;39.80;;;;;;5036901;28;8834;-67
2021/11/02 13:10:35;;;;;;;;;36.67;33.67;23.20;41.40;;;;;;5036660;28;8753;-66
2021/11/02 13:13:13;;;;;;;;;43.00;36.67;27.80;37.60;;;;;;5049613;28;9539;-67
2021/11/02 13:15:58;;;;;;;;;38.67;34.67;32.30;29.60;;;;;;5052465;28;8806;-63
2021/11/02 13:18:37;;;;;;;;;37.33;34.00;31.80;27.60;;;;;;5036654;28;8786;-65
2021/11/02 13:21:29;;;;;;;;;26.33;26.33;27.80;31.70;;;;;;5049112;28;8882;-66
2021/11/02 13:24:13;;;;;;;;;37.33;34.33;25.40;36.40;;;;;;5055767;28;8813;-67
2021/11/02 13:26:46;;;;;;;;;36.67;33.67;25.90;38.00;;;;;;5056063;28;8884;-65
2021/11/02 13:29:17;;;;;;;;;31.67;30.67;24.70;37.60;;;;;;5055475;28;8763;-65
2021/11/02 13:31:44;;;;;;;;;26.33;26.33;23.50;40.70;;;;;;5056276;28;8864;-68
2021/11/02 13:34:30;;;;;;;;;31.33;30.67;22.40;43.10;;;;;;5056114;28;8794;-63
2021/11/02 13:37:11;;;;;;;;;32.67;31.67;21.80;44.10;;;;;;5052154;28;8786;-63
2021/11/02 13:39:57;;;;;;;;;30.33;30.33;21.60;46.20;;;;;;5043071;28;8795;-64
2021/11/02 13:42:52;;;;;;;;;29.00;29.00;22.50;43.30;;;;;;5047202;28;8788;-65
2021/11/02 13:45:23;;;;;;;;;30.67;29.67;26.00;39.00;;;;;;5041776;28;8790;-65
2021/11/02 13:47:49;;;;;;;;;38.33;35.00;29.60;32.70;;;;;;5045558;28;8823;-65
2021/11/02 13:50:15;;;;;;;;;31.33;30.33;31.90;29.10;;;;;;5045130;28;9476;-64
2021/11/02 13:52:41;;;;;;;;;30.00;29.00;32.40;27.30;;;;;;5044037;28;8828;-64
2021/11/02 13:55:08;;;;;;;;;28.00;28.00;32.70;27.20;;;;;;5055972;28;11513;-64
2021/11/02 13:57:34;;;;;;;;;26.67;26.67;32.90;27.00;;;;;;5055916;28;8759;-64
2021/11/02 14:00:00;;;;;;;;;27.33;27.33;31.10;27.30;;;;;;5055803;28;11512;-67
2021/11/02 14:02:28;;;;;;;;;20.67;20.67;28.20;30.10;;;;;;5047998;28;12375;-69
2021/11/02 14:04:56;;;;;;;;;24.67;24.67;26.60;32.50;;;;;;5047547;28;8899;-64
2021/11/02 14:07:32;;;;;;;;;22.33;22.33;25.10;35.50;;;;;;5036364;28;11607;-71
2021/11/02 14:10:06;;;;;;;;;23.67;23.67;23.30;39.10;;;;;;5055652;28;11528;-66
2021/11/02 14:12:53;;;;;;;;;23.00;23.00;22.40;41.30;;;;;;5055441;28;8783;-67
2021/11/02 14:15:26;;;;;;;;;25.33;25.33;21.50;43.90;;;;;;5050331;28;11636;-63
2021/11/02 14:18:14;;;;;;;;;23.67;23.67;21.10;45.30;;;;;;5053948;28;8815;-62
2021/11/02 14:20:51;;;;;;;;;35.00;32.67;21.20;45.50;;;;;;5053325;28;8795;-61
2021/11/02 14:23:29;;;;;;;;;40.67;36.00;21.20;45.50;;;;;;5051630;28;8823;-60
2021/11/02 14:26:14;;;;;;;;;45.67;40.00;21.20;45.90;;;;;;5053628;28;8775;-63
2021/11/02 14:28:47;;;;;;;;;46.33;39.33;21.10;46.90;;;;;;5052455;28;8771;-63
2021/11/02 14:31:45;;;;;;;;;44.00;38.33;20.70;48.50;;;;;;5050234;28;8779;-61
2021/11/02 14:34:26;;;;;;;;;56.25;48.00;20.50;50.20;;;;;;4986661;28;8842;-61
2021/11/02 14:37:13;;;;;;;;;47.00;41.00;20.10;51.70;;;;;;4987891;28;8796;-61
2021/11/02 14:39:56;;;;;;;;;53.50;45.25;19.80;52.70;;;;;;4983233;28;8814;-62
2021/11/02 14:42:56;;;;;;;;;51.75;44.00;19.50;53.60;;;;;;4985510;28;8792;-61
2021/11/02 14:45:40;;;;;;;;;55.50;46.75;19.20;55.10;;;;;;4967879;28;8800;-61
2021/11/02 14:48:24;;;;;;;;;64.00;52.75;19.10;55.60;;;;;;4987410;28;8893;-62
2021/11/02 14:51:17;;;;;;;;;70.75;56.75;19.10;55.20;;;;;;4986501;28;8814;-63
2021/11/02 14:53:44;;;;;;;;;62.50;52.50;18.90;55.90;;;;;;4974425;28;9527;-63
2021/11/02 14:56:17;;;;;;;;;66.00;54.50;18.90;56.50;;;;;;4986769;28;8782;-62
2021/11/02 14:58:56;;;;;;;;;67.25;55.00;18.80;56.90;;;;;;4986693;28;8804;-63
2021/11/02 15:01:33;;;;;;;;;68.00;56.50;18.70;57.90;;;;;;4982862;28;8793;-63
2021/11/02 15:04:13;;;;;;;;;60.25;51.00;18.60;57.60;;;;;;4983539;28;8786;-65
2021/11/02 15:06:43;;;;;;;;;61.25;51.50;18.60;57.30;;;;;;4983376;28;8867;-69
2021/11/02 15:09:18;;;;;;;;;55.25;46.75;18.50;57.50;;;;;;4998006;28;8793;-61
2021/11/02 15:11:50;;;;;;;;;56.50;47.50;18.50;58.00;;;;;;5053406;28;8755;-61
2021/11/02 15:14:20;;;;;;;;;57.75;48.75;18.30;59.00;;;;;;5050590;28;8822;-61
2021/11/02 15:16:51;;;;;;;;;61.25;51.25;18.00;60.80;;;;;;5053194;28;8771;-61
2021/11/02 15:19:19;;;;;;;;;60.50;49.75;17.70;61.80;;;;;;5051177;28;8774;-61
2021/11/02 15:21:52;;;;;;;;;61.75;51.25;17.50;62.70;;;;;;5051780;28;9457;-62
2021/11/02 15:24:22;;;;;;;;;61.00;50.25;17.40;63.20;;;;;;5051010;28;8813;-62
2021/11/02 15:27:11;;;;;;;;;62.75;52.25;17.10;64.10;;;;;;5052955;28;8814;-62
2021/11/02 15:29:40;;;;;;;;;62.00;51.50;17.00;64.60;;;;;;5040761;28;8811;-62
2021/11/02 15:32:13;;;;;;;;;60.50;50.50;16.80;64.80;;;;;;5052384;28;8794;-61
2021/11/02 15:34:46;;;;;;;;;63.00;52.25;16.70;64.50;;;;;;5053053;28;8826;-67
2021/11/02 15:37:17;;;;;;;;;59.00;50.00;16.60;64.50;;;;;;5054499;28;8779;-67
2021/11/02 15:39:45;;;;;;;;;58.00;49.50;16.50;64.60;;;;;;5054025;28;8775;-62
2021/11/02 15:42:27;;;;;;;;;59.00;49.25;16.40;64.60;;;;;;5053992;28;8779;-63
2021/11/02 15:44:58;;;;;;;;;62.50;51.00;16.40;64.60;;;;;;5054314;28;8778;-65
2021/11/02 15:47:26;;;;;;;;;60.25;50.25;16.30;64.80;;;;;;5054051;28;8790;-63
2021/11/02 15:50:08;;;;;;;;;64.50;52.50;16.60;63.80;;;;;;5054012;28;8786;-68
2021/11/02 15:52:36;;;;;;;;;72.25;58.75;16.70;63.30;;;;;;5056845;28;8803;-69
2021/11/02 15:55:10;;;;;;;;;64.00;53.50;16.80;63.00;;;;;;5058171;28;9003;-68
2021/11/02 15:57:42;;;;;;;;;67.25;56.25;16.70;62.60;;;;;;5058401;28;8825;-68
2021/11/02 16:00:11;;;;;;;;;65.25;53.50;16.70;63.00;;;;;;5058195;28;8813;-69
2021/11/02 16:02:39;;;;;;;;;60.50;49.75;16.70;62.60;;;;;;5058073;28;9428;-69
2021/11/02 16:05:07;;;;;;;;;72.50;59.00;17.20;61.20;;;;;;5057951;28;8767;-73
2021/11/02 16:07:33;;;;;;;;;71.75;58.75;16.80;61.90;;;;;;5058254;28;9436;-68
2021/11/02 16:10:00;;;;;;;;;75.75;64.25;16.80;62.30;;;;;;5057999;28;8770;-72
2021/11/02 16:12:39;;;;;;;;;71.50;59.50;16.70;62.40;;;;;;5057792;28;8840;-68
2021/11/02 16:15:11;;;;;;;;;77.00;63.75;16.60;62.50;;;;;;5058066;28;8916;-68
2021/11/02 16:18:00;;;;;;;;;71.75;61.50;16.50;62.80;;;;;;5058140;28;8747;-67
2021/11/02 16:20:32;;;;;;;;;76.25;72.25;16.50;63.10;;;;;;5058145;28;8869;-65
2021/11/02 16:23:02;;;;;;;;;73.50;67.50;16.60;62.50;;;;;;5057639;28;8884;-68
2021/11/02 16:25:30;;;;;;;;;77.00;72.25;16.50;62.70;;;;;;5057613;28;8821;-64
2021/11/02 16:27:58;;;;;;;;;77.25;66.25;16.50;62.80;;;;;;5057652;28;9380;-68
2021/11/02 16:30:32;;;;;;;;;70.25;62.25;16.30;63.40;;;;;;5057759;28;8771;-71
2021/11/02 16:32:59;;;;;;;;;74.50;68.50;16.10;64.20;;;;;;5057633;28;8771;-67
2021/11/02 16:35:32;;;;;;;;;80.50;70.50;15.90;65.10;;;;;;5057412;28;8829;-67
2021/11/02 16:37:58;;;;;;;;;76.25;61.75;16.10;64.30;;;;;;5057491;28;8783;-68
2021/11/02 16:40:28;;;;;;;;;73.50;59.50;16.20;63.70;;;;;;5056374;28;8856;-68
2021/11/02 16:43:02;;;;;;;;;73.00;60.50;15.90;64.40;;;;;;5057504;28;8771;-67
2021/11/02 16:45:35;;;;;;;;;70.75;62.50;15.80;64.50;;;;;;5057578;28;8909;-67
2021/11/02 16:48:04;;;;;;;;;72.25;63.25;16.00;63.80;;;;;;5057525;28;8872;-67
2021/11/02 16:50:37;;;;;;;;;68.75;58.75;16.10;63.10;;;;;;5057529;28;8754;-67
2021/11/02 16:53:16;;;;;;;;;69.75;60.75;16.20;63.10;;;;;;5057473;28;8806;-68
2021/11/02 16:55:45;;;;;;;;;65.25;54.00;16.10;62.90;;;;;;5057259;28;8781;-68
2021/11/02 16:58:32;;;;;;;;;77.00;60.75;15.90;63.30;;;;;;5057321;28;8771;-68
2021/11/02 17:01:11;;;;;;;;;75.50;68.25;15.90;63.40;;;;;;5057406;28;8901;-69
2021/11/02 17:03:37;;;;;;;;;76.50;69.25;15.80;63.70;;;;;;5055899;28;8763;-67
2021/11/02 17:06:19;;;;;;;;;75.25;65.25;15.70;64.10;;;;;;5056934;28;8775;-67
2021/11/02 17:09:09;;;;;;;;;77.25;72.75;15.50;64.40;;;;;;5053150;28;8904;-67
2021/11/02 17:12:01;;;;;;;;;82.25;73.50;15.20;65.20;;;;;;5051280;28;8793;-68
2021/11/02 17:14:27;;;;;;;;;75.00;69.25;15.40;64.90;;;;;;5049172;28;8795;-68
2021/11/02 17:16:55;;;;;;;;;71.50;62.25;15.30;64.70;;;;;;5055366;28;8755;-67
2021/11/02 17:19:22;;;;;;;;;69.00;59.00;15.20;65.40;;;;;;5055961;28;8759;-67
2021/11/02 17:21:50;;;;;;;;;69.50;59.00;15.30;64.70;;;;;;5056670;28;8853;-69
2021/11/02 17:24:17;;;;;;;;;75.25;67.75;15.50;64.00;;;;;;5056491;28;8805;-69
2021/11/02 17:26:43;;;;;;;;;74.00;67.75;15.80;63.10;;;;;;5056630;28;8798;-69
2021/11/02 17:29:09;;;;;;;;;74.75;66.25;15.90;62.70;;;;;;5055532;28;8786;-69
2021/11/02 17:31:38;;;;;;;;;78.25;71.50;15.80;63.00;;;;;;5043411;28;8804;-69
2021/11/02 17:34:21;;;;;;;;;87.75;86.00;15.60;63.50;;;;;;5042785;28;8834;-68
2021/11/02 17:36:55;;;;;;;;;88.00;85.00;15.50;65.00;;;;;;5045153;28;8781;-70
2021/11/02 17:39:21;;;;;;;;;78.50;75.00;15.60;64.00;;;;;;5046420;28;8858;-68
2021/11/02 17:41:48;;;;;;;;;84.75;78.50;15.20;64.90;;;;;;5055912;28;8783;-67
2021/11/02 17:44:15;;;;;;;;;86.00;83.75;15.00;65.90;;;;;;5056452;28;9456;-68
2021/11/02 17:46:42;;;;;;;;;83.00;81.00;15.10;65.70;;;;;;5055249;28;8767;-67
2021/11/02 17:49:09;;;;;;;;;82.75;80.50;15.40;64.90;;;;;;5056464;28;9456;-68
2021/11/02 17:51:36;;;;;;;;;80.00;74.25;15.60;63.70;;;;;;5056325;28;8911;-68
2021/11/02 17:54:02;;;;;;;;;80.00;73.00;15.60;64.00;;;;;;5049740;28;8803;-69
2021/11/02 17:56:28;;;;;;;;;80.00;77.25;15.70;63.50;;;;;;5037539;28;8808;-68
2021/11/02 17:58:58;;;;;;;;;82.00;75.25;15.50;64.10;;;;;;5035870;28;8769;-70
2021/11/02 18:01:24;;;;;;;;;83.00;81.00;15.50;64.00;;;;;;5036312;28;8773;-67
2021/11/02 18:03:51;;;;;;;;;86.25;82.75;15.30;64.90;;;;;;5035789;28;8793;-67
2021/11/02 18:06:18;;;;;;;;;80.25;79.75;15.40;64.80;;;;;;5035893;28;8781;-67
2021/11/02 18:08:46;;;;;;;;;84.00;80.00;15.70;63.50;;;;;;5042612;28;8829;-68
2021/11/02 18:11:13;;;;;;;;;101.50;101.25;15.60;63.50;;;;;;5038795;28;8808;-68